Station: Macquarie Island

  Atmospheric Gas Attenuation - ITU Rec 676-11   --------------- db/100km ---------------
Date Time Temp RH % AH g/m3 Dew Point Wind Direction Speed kph Gust kph Barometer mB Rainfall Since 9am 24GHz 47GHz 76GHz 122GHz 134GHz 241GHz
23 10:20 6 91 6.61 4.6 46 56 995.4 0 15.7 24.2 34.6 90.8 79.5 271.5
23 10:10 6.1 90 6.58 4.6 57 63 995.2 0 15.6 24.1 34.5 90.4 79.0 269.6
23 10:00 6.4 88 6.56 4.6 41 44 995 0 15.5 24.0 34.2 89.8 78.4 267.6
23 09:50 6.4 88 6.56 4.6 54 61 994.7 0 15.5 24.0 34.2 89.8 78.4 267.6
23 09:40 6.6 94 7.1 5.7 48 54 994.6 0 16.7 24.8 36.3 95.4 85.4 292.3
23 09:30 6.7 96 7.3 6.1 52 57 994.5 0 17.1 25.1 37.1 97.5 88.0 301.4
23 09:20 6.7 97 7.37 6.3 54 63 994.3 0 17.3 25.2 37.4 98.2 89.0 304.7
23 09:10 6.4 97 7.23 6 46 50 994.4 0 17.0 25.1 37.0 97.1 87.4 299.2
23 09:00 6.4 96 7.16 5.8 50 56 994.5 0 16.8 24.9 36.7 96.3 86.4 295.9
23 08:50 6.3 96 7.11 5.7 52 61 994.6 2.6 16.7 24.9 36.5 95.9 85.9 293.9
23 08:40 6.6 96 7.25 6 59 67 994.5 2.6 17.0 25.0 36.9 97.1 87.5 299.4
23 08:30 6.4 97 7.23 6 59 76 994.4 2.6 17.0 25.1 37.0 97.1 87.4 299.2
23 08:20 6.1 97 7.09 5.7 56 65 994.6 2.6 16.7 24.9 36.5 95.9 85.8 293.7
23 08:10 6 96 6.97 5.4 54 57 994.8 2.4 16.4 24.7 36.1 94.7 84.3 288.4
23 08:00 5.9 96 6.93 5.3 50 69 994.9 2.4 16.4 24.7 36.0 94.4 83.9 286.9
23 07:50 5.9 96 6.93 5.3 48 56 995 2.4 16.4 24.7 36.0 94.4 83.9 286.9
23 07:40 5.8 95 6.81 5.1 52 59 995.3 2.2 16.1 24.6 35.5 93.3 82.4 281.6
23 07:30 5.8 95 6.81 5.1 54 74 995.3 2 16.1 24.6 35.5 93.3 82.4 281.6
23 07:20 5.6 94 6.65 4.7 48 59 995.5 2 15.8 24.4 35.0 91.8 80.5 274.8
23 07:10 5.5 94 6.61 4.6 56 63 995.5 2 15.7 24.3 34.8 91.4 80.0 273.2
23 07:00 5.5 94 6.61 4.6 67 93 995.3 2 15.7 24.3 34.8 91.4 80.0 273.2
23 06:50 5.3 94 6.52 4.4 74 83 995.3 2 15.5 24.2 34.6 90.7 79.0 269.6
23 06:40 5.1 94 6.43 4.2 65 78 995.5 1.8 15.3 24.1 34.3 89.9 78.0 266.1
23 06:30 5 95 6.46 4.3 70 98 995.6 1.8 15.4 24.2 34.5 90.4 78.5 267.9
23 06:20 4.9 94 6.35 4 74 89 995.9 1.6 15.1 24.1 34.1 89.3 77.1 263.1
23 06:10 4.9 93 6.28 3.9 65 74 996.8 1 15.0 24.0 33.8 88.7 76.3 260.0
23 06:00 6.1 83 6.07 3.4 65 87 997.3 0.6 14.5 23.3 32.5 85.1 72.3 246.4
23 05:50 6.1 82 5.99 3.3 57 69 997.2 0.4 14.3 23.2 32.2 84.2 71.3 242.7
23 05:40 6.2 81 5.96 3.2 59 78 997.4 0.4 14.2 23.1 32.0 83.8 70.8 241.1
23 05:30 6.2 81 5.96 3.2 59 87 997.8 0.4 14.2 23.2 32.0 83.9 70.8 241.1
23 05:20 6.3 81 6 3.3 57 69 997.9 0.2 14.3 23.2 32.2 84.2 71.3 242.7
23 05:10 6.2 81 5.96 3.2 54 65 998.2 0.2 14.2 23.2 32.0 83.9 70.9 241.2
23 05:00 6.3 79 5.85 2.9 52 65 998.5 0.2 14.0 23.0 31.6 82.7 69.4 236.0
23 04:50 6 82 5.96 3.2 50 59 999.3 0.2 14.3 23.3 32.2 84.2 71.1 242.1
23 04:40 6.1 85 6.21 3.8 69 85 999.7 0 14.8 23.7 33.1 86.8 74.3 253.4
23 04:30 6.1 88 6.43 4.3 56 65 999.6 0 15.3 24.0 34.0 89.2 77.3 263.6
23 04:20 6 90 6.54 4.5 54 65 999.8 0 15.5 24.2 34.5 90.5 78.9 269.2
23 04:10 6.1 89 6.51 4.4 50 59 1000.3 0 15.4 24.2 34.4 90.1 78.4 267.5
23 04:00 6.1 89 6.51 4.4 54 70 1000.4 0 15.4 24.2 34.4 90.1 78.4 267.6
23 03:50 6.2 88 6.48 4.4 56 65 1000.5 0 15.4 24.1 34.2 89.7 77.9 265.8
23 03:40 6.1 87 6.36 4.1 54 69 1000.6 0 15.1 23.9 33.8 88.5 76.4 260.6
23 03:30 6 89 6.46 4.3 41 72 1001 0 15.3 24.1 34.3 89.8 77.9 265.7
23 03:20 6.1 88 6.43 4.3 39 65 1000.5 0 15.3 24.0 34.1 89.3 77.3 263.8
23 03:10 6.1 91 6.65 4.7 48 57 1001.4 0 15.7 24.4 35.0 91.8 80.3 274.4
23 03:00 6.1 91 6.65 4.7 41 59 1001.9 0 15.7 24.5 35.0 91.8 80.4 274.5
23 02:50 6 92 6.68 4.8 32 35 1002.4 0 15.8 24.6 35.2 92.3 80.9 276.4
23 02:40 6 92 6.68 4.8 33 37 1002.5 0 15.8 24.6 35.2 92.3 80.9 276.4
23 02:30 6 93 6.75 5 33 44 1002.8 0 16.0 24.7 35.5 93.1 81.9 279.8
23 02:20 5.9 93 6.71 4.9 37 44 1003.1 0 15.9 24.7 35.4 92.8 81.5 278.3
23 02:10 6 93 6.75 5 35 46 1003.1 0 16.0 24.7 35.5 93.1 81.9 279.9
23 02:00 5.9 94 6.78 5 30 37 1003.3 0 16.0 24.8 35.7 93.6 82.5 281.7
23 01:50 5.9 94 6.78 5 26 30 1003.5 0 16.0 24.8 35.7 93.6 82.5 281.8
23 01:40 5.9 94 6.78 5 32 37 1003.6 0 16.0 24.8 35.7 93.6 82.5 281.8
23 01:30 5.9 94 6.78 5 30 35 1003.8 0 16.0 24.8 35.7 93.7 82.5 281.9
23 01:20 5.9 93 6.71 4.9 28 33 1003.9 0 15.9 24.7 35.4 92.9 81.5 278.5
23 01:10 5.9 93 6.71 4.9 24 28 1003.9 0 15.9 24.7 35.4 92.9 81.5 278.5
23 01:00 5.8 93 6.67 4.8 26 35 1004.1 0 15.8 24.7 35.3 92.6 81.1 277.0
23 00:50 5.8 93 6.67 4.8 30 33 1004 0 15.8 24.7 35.3 92.6 81.1 277.0
23 00:40 5.8 92 6.59 4.6 26 30 1004.1 0 15.6 24.5 35.0 91.7 80.0 273.2
23 00:30 5.8 92 6.59 4.6 26 35 1004.2 0 15.6 24.5 35.0 91.7 80.0 273.2
23 00:20 5.7 92 6.55 4.5 24 28 1004.6 0 15.5 24.5 34.9 91.5 79.6 271.8
23 00:10 5.7 93 6.62 4.7 26 30 1004.6 0 15.7 24.6 35.2 92.2 80.6 275.1
23 00:00 5.6 94 6.65 4.7 20 28 1004.9 0 15.8 24.7 35.4 92.7 81.1 277.0
22 23:50 5.6 94 6.65 4.7 22 26 1005 0 15.8 24.7 35.4 92.7 81.1 277.0
22 23:40 5.6 95 6.72 4.9 24 28 1005.5 0 15.9 24.9 35.7 93.5 82.1 280.5
22 23:30 5.6 95 6.72 4.9 26 32 1005.7 0 15.9 24.9 35.7 93.6 82.1 280.5
22 23:20 5.5 96 6.75 4.9 26 28 1005.7 0 16.0 24.9 35.9 94.0 82.7 282.3
22 23:10 5.5 96 6.75 4.9 26 28 1005.8 0 16.0 24.9 35.9 94.0 82.7 282.3
22 23:00 5.5 96 6.75 4.9 24 26 1005.9 0 16.0 24.9 35.9 94.0 82.7 282.4
22 22:50 5.5 96 6.75 4.9 24 26 1006.1 0 16.0 25.0 35.9 94.0 82.7 282.4
22 22:40 5.5 96 6.75 4.9 26 28 1006.1 0 16.0 25.0 35.9 94.0 82.7 282.4
22 22:30 5.5 97 6.82 5.1 24 24 1006.1 0 16.1 25.1 36.2 94.8 83.6 285.8
22 22:20 5.5 96 6.75 4.9 26 26 1006.1 0 16.0 25.0 35.9 94.0 82.7 282.4
22 22:10 5.5 97 6.82 5.1 26 28 1006.2 0 16.1 25.1 36.2 94.8 83.7 285.8
22 22:00 5.3 97 6.73 4.9 24 26 1006.3 0 15.9 25.0 35.9 94.1 82.6 282.2
22 21:50 5.3 97 6.73 4.9 22 22 1006.3 0 15.9 25.0 35.9 94.1 82.6 282.2
22 21:40 5.3 97 6.73 4.9 24 26 1006.4 0 15.9 25.0 35.9 94.1 82.6 282.2
22 21:30 5.3 97 6.73 4.9 22 24 1006.3 0 15.9 25.0 35.9 94.1 82.6 282.2
22 21:20 5.3 97 6.73 4.9 22 24 1006.3 0 15.9 25.0 35.9 94.1 82.6 282.2
22 21:10 5.2 97 6.68 4.8 22 22 1006.3 0 15.8 24.9 35.7 93.7 82.1 280.2
22 21:00 5.3 97 6.73 4.9 22 24 1006.3 0 15.9 25.0 35.9 94.1 82.6 282.2
22 20:50 5.2 97 6.68 4.8 22 24 1006.2 0 15.8 24.9 35.7 93.6 82.0 280.2
22 20:40 5.2 97 6.68 4.8 20 20 1006.3 0 15.8 24.9 35.7 93.7 82.1 280.2
22 20:30 5.2 97 6.68 4.8 20 20 1006.4 0 15.8 24.9 35.7 93.7 82.1 280.2
22 20:20 5.3 97 6.73 4.9 20 22 1006.5 0 15.9 25.0 35.9 94.1 82.7 282.3
22 20:10 5.2 97 6.68 4.8 20 22 1006.6 0 15.8 24.9 35.8 93.7 82.1 280.2
22 20:00 5.2 97 6.68 4.8 20 20 1006.5 0 15.8 24.9 35.8 93.7 82.1 280.2
22 19:50 5.2 97 6.68 4.8 19 20 1006.5 0 15.8 24.9 35.8 93.7 82.1 280.2
22 19:40 5.2 97 6.68 4.8 17 17 1006.5 0 15.8 24.9 35.8 93.7 82.1 280.2
22 19:30 5.2 97 6.68 4.8 15 17 1006.5 0 15.8 24.9 35.8 93.7 82.1 280.2
22 19:20 5 96 6.53 4.4 13 13 1006.5 0 15.5 24.7 35.2 92.2 80.2 273.7
22 19:10 5 96 6.53 4.4 13 13 1006.7 0 15.5 24.7 35.2 92.3 80.2 273.8
22 19:00 5 96 6.53 4.4 13 13 1006.8 0 15.5 24.8 35.2 92.3 80.2 273.8
22 18:50 5 96 6.53 4.4 9 11 1006.7 0 15.5 24.7 35.2 92.3 80.2 273.8
22 18:40 5.1 96 6.57 4.5 9 11 1006.7 0 15.6 24.8 35.3 92.6 80.7 275.3
22 18:30 5.1 95 6.5 4.4 9 9 1006.5 0 15.5 24.7 35.0 91.8 79.7 271.9
22 18:20 5.1 95 6.5 4.4 9 9 1006.6 0 15.5 24.7 35.1 91.8 79.7 272.0
22 18:10 5.1 95 6.5 4.4 9 11 1006.5 0 15.5 24.7 35.0 91.8 79.7 271.9
22 18:00 5.3 95 6.59 4.6 11 13 1006.5 0 15.6 24.8 35.3 92.6 80.7 275.5
22 17:50 5.4 95 6.63 4.7 13 15 1006.4 0 15.7 24.8 35.4 92.9 81.2 277.1

Last Refresh: 23-Jul-2024 09:57:22

Bureau of Meteorology